sensor_id;sensor_type;location;lat;lon;timestamp;temperature;humidity
52849;DHT22;38714;53.180;5.812;2022-11-20T00:00:51;1.00;99.90
52849;DHT22;38714;53.180;5.812;2022-11-20T00:03:17;1.10;99.90
52849;DHT22;38714;53.180;5.812;2022-11-20T00:05:43;1.10;99.90
52849;DHT22;38714;53.180;5.812;2022-11-20T00:08:09;1.10;99.90
52849;DHT22;38714;53.180;5.812;2022-11-20T00:10:39;1.10;99.90
52849;DHT22;38714;53.180;5.812;2022-11-20T00:13:06;1.10;99.90
52849;DHT22;38714;53.180;5.812;2022-11-20T00:15:31;1.10;99.90
52849;DHT22;38714;53.180;5.812;2022-11-20T00:17:57;1.10;99.90
52849;DHT22;38714;53.180;5.812;2022-11-20T00:20:23;1.10;99.90
52849;DHT22;38714;53.180;5.812;2022-11-20T00:22:49;1.10;99.90
52849;DHT22;38714;53.180;5.812;2022-11-20T00:25:15;1.10;99.90
52849;DHT22;38714;53.180;5.812;2022-11-20T00:27:41;1.10;99.90
52849;DHT22;38714;53.180;5.812;2022-11-20T00:30:07;1.10;99.90
52849;DHT22;38714;53.180;5.812;2022-11-20T00:32:32;1.10;99.90
52849;DHT22;38714;53.180;5.812;2022-11-20T00:34:58;1.10;99.90
52849;DHT22;38714;53.180;5.812;2022-11-20T00:37:23;1.10;99.90
52849;DHT22;38714;53.180;5.812;2022-11-20T00:39:49;1.10;99.90
52849;DHT22;38714;53.180;5.812;2022-11-20T00:42:14;1.00;99.90
52849;DHT22;38714;53.180;5.812;2022-11-20T00:44:40;1.00;99.90
52849;DHT22;38714;53.180;5.812;2022-11-20T00:47:05;1.00;99.90
52849;DHT22;38714;53.180;5.812;2022-11-20T00:49:31;1.00;99.90
52849;DHT22;38714;53.180;5.812;2022-11-20T00:51:57;1.00;99.90
52849;DHT22;38714;53.180;5.812;2022-11-20T00:54:22;0.90;99.90
52849;DHT22;38714;53.180;5.812;2022-11-20T00:56:48;1.00;99.90
52849;DHT22;38714;53.180;5.812;2022-11-20T00:59:13;1.00;99.90
52849;DHT22;38714;53.180;5.812;2022-11-20T01:01:39;1.00;99.90
52849;DHT22;38714;53.180;5.812;2022-11-20T01:04:05;1.00;99.90
52849;DHT22;38714;53.180;5.812;2022-11-20T01:06:33;1.00;99.90
52849;DHT22;38714;53.180;5.812;2022-11-20T01:09:02;1.00;99.90
52849;DHT22;38714;53.180;5.812;2022-11-20T01:11:37;1.00;99.90
52849;DHT22;38714;53.180;5.812;2022-11-20T01:14:04;1.10;99.90
52849;DHT22;38714;53.180;5.812;2022-11-20T01:16:35;1.10;99.90
52849;DHT22;38714;53.180;5.812;2022-11-20T01:19:04;1.10;99.90
52849;DHT22;38714;53.180;5.812;2022-11-20T01:21:36;1.10;99.90
52849;DHT22;38714;53.180;5.812;2022-11-20T01:24:03;1.10;99.90
52849;DHT22;38714;53.180;5.812;2022-11-20T01:26:31;1.10;99.90
52849;DHT22;38714;53.180;5.812;2022-11-20T01:28:58;1.10;99.90
52849;DHT22;38714;53.180;5.812;2022-11-20T01:31:35;1.10;99.90
52849;DHT22;38714;53.180;5.812;2022-11-20T01:34:06;1.10;99.90
52849;DHT22;38714;53.180;5.812;2022-11-20T01:36:34;1.10;99.90
52849;DHT22;38714;53.180;5.812;2022-11-20T01:39:03;1.10;99.90
52849;DHT22;38714;53.180;5.812;2022-11-20T01:41:32;1.10;99.90
52849;DHT22;38714;53.180;5.812;2022-11-20T01:44:19;1.10;99.90
52849;DHT22;38714;53.180;5.812;2022-11-20T01:47:05;1.10;99.90
52849;DHT22;38714;53.180;5.812;2022-11-20T01:49:38;1.10;99.90
52849;DHT22;38714;53.180;5.812;2022-11-20T01:52:09;1.10;99.90
52849;DHT22;38714;53.180;5.812;2022-11-20T01:54:46;1.10;99.90
52849;DHT22;38714;53.180;5.812;2022-11-20T01:57:13;1.10;99.90
52849;DHT22;38714;53.180;5.812;2022-11-20T01:59:45;1.00;99.90
52849;DHT22;38714;53.180;5.812;2022-11-20T02:02:13;1.00;99.90
52849;DHT22;38714;53.180;5.812;2022-11-20T02:04:39;1.00;99.90
52849;DHT22;38714;53.180;5.812;2022-11-20T02:07:05;1.00;99.90
52849;DHT22;38714;53.180;5.812;2022-11-20T02:09:31;1.00;99.90
52849;DHT22;38714;53.180;5.812;2022-11-20T02:14:24;1.00;99.90
52849;DHT22;38714;53.180;5.812;2022-11-20T02:16:51;1.00;99.90
52849;DHT22;38714;53.180;5.812;2022-11-20T02:19:23;1.00;99.90
52849;DHT22;38714;53.180;5.812;2022-11-20T02:22:04;1.00;99.90
52849;DHT22;38714;53.180;5.812;2022-11-20T02:24:31;1.00;99.90
52849;DHT22;38714;53.180;5.812;2022-11-20T02:27:03;1.00;99.90
52849;DHT22;38714;53.180;5.812;2022-11-20T02:32:02;1.00;99.90
52849;DHT22;38714;53.180;5.812;2022-11-20T02:34:28;1.00;99.90
52849;DHT22;38714;53.180;5.812;2022-11-20T02:36:54;1.00;99.90
52849;DHT22;38714;53.180;5.812;2022-11-20T02:39:22;1.00;99.90
52849;DHT22;38714;53.180;5.812;2022-11-20T02:41:48;1.00;99.90
52849;DHT22;38714;53.180;5.812;2022-11-20T02:44:14;1.00;99.90
52849;DHT22;38714;53.180;5.812;2022-11-20T02:46:39;1.00;99.90
52849;DHT22;38714;53.180;5.812;2022-11-20T02:49:05;1.10;99.90
52849;DHT22;38714;53.180;5.812;2022-11-20T02:51:31;1.10;99.90
52849;DHT22;38714;53.180;5.812;2022-11-20T02:53:57;1.10;99.90
52849;DHT22;38714;53.180;5.812;2022-11-20T02:56:23;1.00;99.90
52849;DHT22;38714;53.180;5.812;2022-11-20T02:58:49;1.10;99.90
52849;DHT22;38714;53.180;5.812;2022-11-20T03:01:15;1.10;99.90
52849;DHT22;38714;53.180;5.812;2022-11-20T03:03:40;1.10;99.90
52849;DHT22;38714;53.180;5.812;2022-11-20T03:06:06;1.10;99.90
52849;DHT22;38714;53.180;5.812;2022-11-20T03:08:32;1.10;99.90
52849;DHT22;38714;53.180;5.812;2022-11-20T03:11:02;1.10;99.90
52849;DHT22;38714;53.180;5.812;2022-11-20T03:13:28;1.10;99.90
52849;DHT22;38714;53.180;5.812;2022-11-20T03:15:53;1.10;99.90
52849;DHT22;38714;53.180;5.812;2022-11-20T03:18:19;1.10;99.90
52849;DHT22;38714;53.180;5.812;2022-11-20T03:20:44;1.10;99.90
52849;DHT22;38714;53.180;5.812;2022-11-20T03:23:10;1.10;99.90
52849;DHT22;38714;53.180;5.812;2022-11-20T03:25:35;1.10;99.90
52849;DHT22;38714;53.180;5.812;2022-11-20T03:28:01;1.10;99.90
52849;DHT22;38714;53.180;5.812;2022-11-20T03:30:26;1.10;99.90
52849;DHT22;38714;53.180;5.812;2022-11-20T03:32:53;1.20;99.90
52849;DHT22;38714;53.180;5.812;2022-11-20T03:35:19;1.20;99.90
52849;DHT22;38714;53.180;5.812;2022-11-20T03:37:44;1.20;99.90
52849;DHT22;38714;53.180;5.812;2022-11-20T03:40:11;1.10;99.90
52849;DHT22;38714;53.180;5.812;2022-11-20T03:42:37;1.20;99.90
52849;DHT22;38714;53.180;5.812;2022-11-20T03:45:13;1.10;99.90
52849;DHT22;38714;53.180;5.812;2022-11-20T03:47:39;1.10;99.90
52849;DHT22;38714;53.180;5.812;2022-11-20T03:50:05;1.10;99.90
52849;DHT22;38714;53.180;5.812;2022-11-20T03:52:30;1.10;99.90
52849;DHT22;38714;53.180;5.812;2022-11-20T03:54:56;1.00;99.90
52849;DHT22;38714;53.180;5.812;2022-11-20T03:57:22;1.10;99.90
52849;DHT22;38714;53.180;5.812;2022-11-20T03:59:47;1.00;99.90
52849;DHT22;38714;53.180;5.812;2022-11-20T04:02:13;1.00;99.90
52849;DHT22;38714;53.180;5.812;2022-11-20T04:04:38;1.00;99.90
52849;DHT22;38714;53.180;5.812;2022-11-20T04:07:04;0.90;99.90
52849;DHT22;38714;53.180;5.812;2022-11-20T04:09:29;0.90;99.90
52849;DHT22;38714;53.180;5.812;2022-11-20T04:11:55;0.90;99.90
52849;DHT22;38714;53.180;5.812;2022-11-20T04:14:20;0.90;99.90
52849;DHT22;38714;53.180;5.812;2022-11-20T04:16:46;0.90;99.90
52849;DHT22;38714;53.180;5.812;2022-11-20T04:19:15;0.90;99.90
52849;DHT22;38714;53.180;5.812;2022-11-20T04:21:41;0.90;99.90
52849;DHT22;38714;53.180;5.812;2022-11-20T04:24:07;0.90;99.90
52849;DHT22;38714;53.180;5.812;2022-11-20T04:26:33;0.80;99.90
52849;DHT22;38714;53.180;5.812;2022-11-20T04:28:59;0.80;99.90
52849;DHT22;38714;53.180;5.812;2022-11-20T04:31:29;0.70;99.90
52849;DHT22;38714;53.180;5.812;2022-11-20T04:33:55;0.70;99.90
52849;DHT22;38714;53.180;5.812;2022-11-20T04:36:25;0.70;99.90
52849;DHT22;38714;53.180;5.812;2022-11-20T04:38:53;0.60;99.90
52849;DHT22;38714;53.180;5.812;2022-11-20T04:41:20;0.60;99.90
52849;DHT22;38714;53.180;5.812;2022-11-20T04:43:48;0.60;99.90
52849;DHT22;38714;53.180;5.812;2022-11-20T04:46:14;0.60;99.90
52849;DHT22;38714;53.180;5.812;2022-11-20T04:48:40;0.60;99.90
52849;DHT22;38714;53.180;5.812;2022-11-20T04:51:06;0.50;99.90
52849;DHT22;38714;53.180;5.812;2022-11-20T04:53:31;0.50;99.90
52849;DHT22;38714;53.180;5.812;2022-11-20T04:56:02;0.60;99.90
52849;DHT22;38714;53.180;5.812;2022-11-20T04:58:28;0.60;99.90
52849;DHT22;38714;53.180;5.812;2022-11-20T05:01:04;0.60;99.90
52849;DHT22;38714;53.180;5.812;2022-11-20T05:03:30;0.60;99.90
52849;DHT22;38714;53.180;5.812;2022-11-20T05:05:56;0.60;99.90
52849;DHT22;38714;53.180;5.812;2022-11-20T05:08:22;0.60;99.90
52849;DHT22;38714;53.180;5.812;2022-11-20T05:10:47;0.50;99.90
52849;DHT22;38714;53.180;5.812;2022-11-20T05:13:13;0.50;99.90
52849;DHT22;38714;53.180;5.812;2022-11-20T05:15:38;0.50;99.90
52849;DHT22;38714;53.180;5.812;2022-11-20T05:18:04;0.50;99.90
52849;DHT22;38714;53.180;5.812;2022-11-20T05:20:30;0.50;99.90
52849;DHT22;38714;53.180;5.812;2022-11-20T05:22:58;0.50;99.90
52849;DHT22;38714;53.180;5.812;2022-11-20T05:25:24;0.40;99.90
52849;DHT22;38714;53.180;5.812;2022-11-20T05:27:50;0.40;99.90
52849;DHT22;38714;53.180;5.812;2022-11-20T05:30:16;0.40;99.90
52849;DHT22;38714;53.180;5.812;2022-11-20T05:32:41;0.30;99.90
52849;DHT22;38714;53.180;5.812;2022-11-20T05:35:07;0.30;99.90
52849;DHT22;38714;53.180;5.812;2022-11-20T05:37:33;0.30;99.90
52849;DHT22;38714;53.180;5.812;2022-11-20T05:39:58;0.30;99.90
52849;DHT22;38714;53.180;5.812;2022-11-20T05:42:24;0.20;99.90
52849;DHT22;38714;53.180;5.812;2022-11-20T05:44:56;0.20;99.90
52849;DHT22;38714;53.180;5.812;2022-11-20T05:47:22;0.20;99.90
52849;DHT22;38714;53.180;5.812;2022-11-20T05:49:48;0.20;99.90
52849;DHT22;38714;53.180;5.812;2022-11-20T05:52:13;0.20;99.90
52849;DHT22;38714;53.180;5.812;2022-11-20T05:54:39;0.20;99.90
52849;DHT22;38714;53.180;5.812;2022-11-20T05:57:04;0.20;99.90
52849;DHT22;38714;53.180;5.812;2022-11-20T05:59:30;0.10;99.90
52849;DHT22;38714;53.180;5.812;2022-11-20T06:01:56;0.10;99.90
52849;DHT22;38714;53.180;5.812;2022-11-20T06:04:21;0.20;99.90
52849;DHT22;38714;53.180;5.812;2022-11-20T06:06:47;0.20;99.90
52849;DHT22;38714;53.180;5.812;2022-11-20T06:09:12;0.30;99.90
52849;DHT22;38714;53.180;5.812;2022-11-20T06:11:38;0.30;99.90
52849;DHT22;38714;53.180;5.812;2022-11-20T06:14:04;0.30;99.90
52849;DHT22;38714;53.180;5.812;2022-11-20T06:16:29;0.30;99.90
52849;DHT22;38714;53.180;5.812;2022-11-20T06:18:55;0.30;99.90
52849;DHT22;38714;53.180;5.812;2022-11-20T06:21:21;0.20;99.90
52849;DHT22;38714;53.180;5.812;2022-11-20T06:23:48;0.20;99.90
52849;DHT22;38714;53.180;5.812;2022-11-20T06:26:18;0.20;99.90
52849;DHT22;38714;53.180;5.812;2022-11-20T06:28:43;0.20;99.90
52849;DHT22;38714;53.180;5.812;2022-11-20T06:31:12;0.20;99.90
52849;DHT22;38714;53.180;5.812;2022-11-20T06:33:37;0.20;99.90
52849;DHT22;38714;53.180;5.812;2022-11-20T06:36:03;0.10;99.90
52849;DHT22;38714;53.180;5.812;2022-11-20T06:38:30;0.10;99.90
52849;DHT22;38714;53.180;5.812;2022-11-20T06:40:56;0.10;99.90
52849;DHT22;38714;53.180;5.812;2022-11-20T06:43:22;0.10;99.90
52849;DHT22;38714;53.180;5.812;2022-11-20T06:45:57;0.00;99.90
52849;DHT22;38714;53.180;5.812;2022-11-20T06:48:25;0.00;99.90
52849;DHT22;38714;53.180;5.812;2022-11-20T06:50:51;0.00;99.90
52849;DHT22;38714;53.180;5.812;2022-11-20T06:53:17;0.00;99.90
52849;DHT22;38714;53.180;5.812;2022-11-20T06:55:44;0.00;99.90
52849;DHT22;38714;53.180;5.812;2022-11-20T06:58:10;-0.10;99.90
52849;DHT22;38714;53.180;5.812;2022-11-20T07:00:35;-0.10;99.90
52849;DHT22;38714;53.180;5.812;2022-11-20T07:03:05;-0.10;99.90
52849;DHT22;38714;53.180;5.812;2022-11-20T07:05:30;-0.10;99.90
52849;DHT22;38714;53.180;5.812;2022-11-20T07:07:57;-0.10;99.90
52849;DHT22;38714;53.180;5.812;2022-11-20T07:10:23;-0.10;99.90
52849;DHT22;38714;53.180;5.812;2022-11-20T07:12:52;-0.10;99.90
52849;DHT22;38714;53.180;5.812;2022-11-20T07:15:19;-0.10;99.90
52849;DHT22;38714;53.180;5.812;2022-11-20T07:17:45;-0.10;99.90
52849;DHT22;38714;53.180;5.812;2022-11-20T07:20:11;-0.10;99.90
52849;DHT22;38714;53.180;5.812;2022-11-20T07:22:37;-0.10;99.90
52849;DHT22;38714;53.180;5.812;2022-11-20T07:25:03;-0.10;99.90
52849;DHT22;38714;53.180;5.812;2022-11-20T07:27:29;-0.10;99.90
52849;DHT22;38714;53.180;5.812;2022-11-20T07:29:54;-0.10;99.90
52849;DHT22;38714;53.180;5.812;2022-11-20T07:32:20;-0.10;99.90
52849;DHT22;38714;53.180;5.812;2022-11-20T07:34:46;0.00;99.90
52849;DHT22;38714;53.180;5.812;2022-11-20T07:37:13;0.00;99.90
52849;DHT22;38714;53.180;5.812;2022-11-20T07:39:38;0.10;99.90
52849;DHT22;38714;53.180;5.812;2022-11-20T07:42:04;0.10;99.90
52849;DHT22;38714;53.180;5.812;2022-11-20T07:44:30;0.10;99.90
52849;DHT22;38714;53.180;5.812;2022-11-20T07:46:56;0.20;99.90
52849;DHT22;38714;53.180;5.812;2022-11-20T07:49:21;0.20;99.90
52849;DHT22;38714;53.180;5.812;2022-11-20T07:51:50;0.20;99.90
52849;DHT22;38714;53.180;5.812;2022-11-20T07:54:15;0.20;99.90
52849;DHT22;38714;53.180;5.812;2022-11-20T07:56:41;0.30;99.90
52849;DHT22;38714;53.180;5.812;2022-11-20T07:59:07;0.30;99.90
52849;DHT22;38714;53.180;5.812;2022-11-20T08:01:32;0.30;99.90
52849;DHT22;38714;53.180;5.812;2022-11-20T08:03:58;0.30;99.90
52849;DHT22;38714;53.180;5.812;2022-11-20T08:06:23;0.30;99.90
52849;DHT22;38714;53.180;5.812;2022-11-20T08:08:50;0.30;99.90
52849;DHT22;38714;53.180;5.812;2022-11-20T08:11:16;0.30;99.90
52849;DHT22;38714;53.180;5.812;2022-11-20T08:14:00;0.30;99.90
52849;DHT22;38714;53.180;5.812;2022-11-20T08:16:48;0.30;99.90
52849;DHT22;38714;53.180;5.812;2022-11-20T08:19:17;0.30;99.90
52849;DHT22;38714;53.180;5.812;2022-11-20T08:21:43;0.30;99.90
52849;DHT22;38714;53.180;5.812;2022-11-20T08:24:10;0.30;99.90
52849;DHT22;38714;53.180;5.812;2022-11-20T08:26:37;0.30;99.90
52849;DHT22;38714;53.180;5.812;2022-11-20T08:29:04;0.40;99.90
52849;DHT22;38714;53.180;5.812;2022-11-20T08:31:30;0.50;99.90
52849;DHT22;38714;53.180;5.812;2022-11-20T08:33:56;0.50;99.90
52849;DHT22;38714;53.180;5.812;2022-11-20T08:36:23;0.50;99.90
52849;DHT22;38714;53.180;5.812;2022-11-20T08:38:52;0.50;99.90
52849;DHT22;38714;53.180;5.812;2022-11-20T08:41:18;0.60;99.90
52849;DHT22;38714;53.180;5.812;2022-11-20T08:43:50;0.60;99.90
52849;DHT22;38714;53.180;5.812;2022-11-20T08:46:16;0.60;99.90
52849;DHT22;38714;53.180;5.812;2022-11-20T08:48:45;0.70;99.90
52849;DHT22;38714;53.180;5.812;2022-11-20T08:51:11;0.70;99.90
52849;DHT22;38714;53.180;5.812;2022-11-20T08:53:38;0.70;99.90
52849;DHT22;38714;53.180;5.812;2022-11-20T08:56:07;0.70;99.90
52849;DHT22;38714;53.180;5.812;2022-11-20T08:58:36;0.80;99.90
52849;DHT22;38714;53.180;5.812;2022-11-20T09:01:02;0.80;99.90
52849;DHT22;38714;53.180;5.812;2022-11-20T09:03:28;0.80;99.90
52849;DHT22;38714;53.180;5.812;2022-11-20T09:06:02;0.80;99.90
52849;DHT22;38714;53.180;5.812;2022-11-20T09:08:29;0.90;99.90
52849;DHT22;38714;53.180;5.812;2022-11-20T09:10:55;0.90;99.90
52849;DHT22;38714;53.180;5.812;2022-11-20T09:13:22;0.90;99.90
52849;DHT22;38714;53.180;5.812;2022-11-20T09:15:53;1.00;99.90
52849;DHT22;38714;53.180;5.812;2022-11-20T09:18:20;1.00;99.90
52849;DHT22;38714;53.180;5.812;2022-11-20T09:20:46;1.10;99.90
52849;DHT22;38714;53.180;5.812;2022-11-20T09:23:11;1.10;99.90
52849;DHT22;38714;53.180;5.812;2022-11-20T09:25:37;1.20;99.90
52849;DHT22;38714;53.180;5.812;2022-11-20T09:28:02;1.20;99.90
52849;DHT22;38714;53.180;5.812;2022-11-20T09:30:28;1.30;99.90
52849;DHT22;38714;53.180;5.812;2022-11-20T09:32:54;1.30;99.90
52849;DHT22;38714;53.180;5.812;2022-11-20T09:35:19;1.30;99.90
52849;DHT22;38714;53.180;5.812;2022-11-20T09:37:45;1.40;99.90
52849;DHT22;38714;53.180;5.812;2022-11-20T09:40:38;1.50;99.90
52849;DHT22;38714;53.180;5.812;2022-11-20T09:43:27;1.50;99.90
52849;DHT22;38714;53.180;5.812;2022-11-20T09:56:40;1.80;99.90
52849;DHT22;38714;53.180;5.812;2022-11-20T09:59:08;1.80;99.90
52849;DHT22;38714;53.180;5.812;2022-11-20T10:01:39;1.90;99.90
52849;DHT22;38714;53.180;5.812;2022-11-20T10:04:19;1.90;99.90
52849;DHT22;38714;53.180;5.812;2022-11-20T10:09:38;2.00;99.90
52849;DHT22;38714;53.180;5.812;2022-11-20T10:23:45;2.30;99.90
52849;DHT22;38714;53.180;5.812;2022-11-20T10:31:41;2.40;99.90
52849;DHT22;38714;53.180;5.812;2022-11-20T10:34:33;2.40;99.90
52849;DHT22;38714;53.180;5.812;2022-11-20T10:37:22;2.40;99.90
52849;DHT22;38714;53.180;5.812;2022-11-20T10:39:56;2.40;99.90
52849;DHT22;38714;53.180;5.812;2022-11-20T10:47:54;2.60;99.90
52849;DHT22;38714;53.180;5.812;2022-11-20T10:50:22;2.70;99.90
52849;DHT22;38714;53.180;5.812;2022-11-20T10:55:43;2.80;99.90
52849;DHT22;38714;53.180;5.812;2022-11-20T10:58:14;2.90;99.90
52849;DHT22;38714;53.180;5.812;2022-11-20T11:00:42;2.80;99.90
52849;DHT22;38714;53.180;5.812;2022-11-20T11:03:25;2.90;99.90
52849;DHT22;38714;53.180;5.812;2022-11-20T11:06:17;2.90;99.90
52849;DHT22;38714;53.180;5.812;2022-11-20T11:08:46;2.90;99.90
52849;DHT22;38714;53.180;5.812;2022-11-20T11:11:32;2.90;99.90
52849;DHT22;38714;53.180;5.812;2022-11-20T11:14:09;2.80;99.90
52849;DHT22;38714;53.180;5.812;2022-11-20T11:16:35;2.90;99.90
52849;DHT22;38714;53.180;5.812;2022-11-20T11:19:19;2.90;99.90
52849;DHT22;38714;53.180;5.812;2022-11-20T11:21:55;2.90;99.90
52849;DHT22;38714;53.180;5.812;2022-11-20T11:24:23;2.90;99.90
52849;DHT22;38714;53.180;5.812;2022-11-20T11:27:01;2.90;99.90
52849;DHT22;38714;53.180;5.812;2022-11-20T11:29:31;3.00;99.90
52849;DHT22;38714;53.180;5.812;2022-11-20T11:32:08;3.00;99.90
52849;DHT22;38714;53.180;5.812;2022-11-20T11:34:36;3.00;99.90
52849;DHT22;38714;53.180;5.812;2022-11-20T11:37:02;3.00;99.90
52849;DHT22;38714;53.180;5.812;2022-11-20T11:39:32;3.00;99.90
52849;DHT22;38714;53.180;5.812;2022-11-20T11:42:00;3.10;99.90
52849;DHT22;38714;53.180;5.812;2022-11-20T11:44:31;3.10;99.90
52849;DHT22;38714;53.180;5.812;2022-11-20T11:49:45;3.20;99.90
52849;DHT22;38714;53.180;5.812;2022-11-20T11:52:20;3.20;99.90
52849;DHT22;38714;53.180;5.812;2022-11-20T11:54:53;3.30;99.90
52849;DHT22;38714;53.180;5.812;2022-11-20T12:00:10;3.30;99.90
52849;DHT22;38714;53.180;5.812;2022-11-20T12:05:45;3.40;99.90
52849;DHT22;38714;53.180;5.812;2022-11-20T12:08:23;3.30;99.90
52849;DHT22;38714;53.180;5.812;2022-11-20T12:10:58;3.30;99.90
52849;DHT22;38714;53.180;5.812;2022-11-20T12:15:56;3.30;99.90
52849;DHT22;38714;53.180;5.812;2022-11-20T12:18:22;3.30;99.90
52849;DHT22;38714;53.180;5.812;2022-11-20T12:21:03;3.30;99.90
52849;DHT22;38714;53.180;5.812;2022-11-20T12:23:38;3.40;99.90
52849;DHT22;38714;53.180;5.812;2022-11-20T12:26:43;3.30;99.90
52849;DHT22;38714;53.180;5.812;2022-11-20T12:29:26;3.40;99.90
52849;DHT22;38714;53.180;5.812;2022-11-20T12:34:47;3.30;99.90
52849;DHT22;38714;53.180;5.812;2022-11-20T12:39:50;3.30;99.90
52849;DHT22;38714;53.180;5.812;2022-11-20T13:06:58;3.40;99.90
52849;DHT22;38714;53.180;5.812;2022-11-20T13:09:25;3.40;99.90
52849;DHT22;38714;53.180;5.812;2022-11-20T13:12:15;3.40;99.90
52849;DHT22;38714;53.180;5.812;2022-11-20T13:17:30;3.40;99.90
52849;DHT22;38714;53.180;5.812;2022-11-20T13:19:58;3.40;99.90
52849;DHT22;38714;53.180;5.812;2022-11-20T13:22:28;3.40;99.90
52849;DHT22;38714;53.180;5.812;2022-11-20T13:24:54;3.40;99.90
52849;DHT22;38714;53.180;5.812;2022-11-20T13:27:23;3.40;99.90
52849;DHT22;38714;53.180;5.812;2022-11-20T13:30:14;3.50;99.90
52849;DHT22;38714;53.180;5.812;2022-11-20T13:35:36;3.40;99.90
52849;DHT22;38714;53.180;5.812;2022-11-20T13:40:51;3.40;99.90
52849;DHT22;38714;53.180;5.812;2022-11-20T13:46:04;3.50;99.90
52849;DHT22;38714;53.180;5.812;2022-11-20T13:48:39;3.40;99.90
52849;DHT22;38714;53.180;5.812;2022-11-20T13:54:10;3.40;99.90
52849;DHT22;38714;53.180;5.812;2022-11-20T14:02:20;3.40;99.90
52849;DHT22;38714;53.180;5.812;2022-11-20T14:04:49;3.40;99.90
52849;DHT22;38714;53.180;5.812;2022-11-20T14:07:23;3.40;99.90
52849;DHT22;38714;53.180;5.812;2022-11-20T14:09:52;3.40;99.90
52849;DHT22;38714;53.180;5.812;2022-11-20T14:12:22;3.40;99.90
52849;DHT22;38714;53.180;5.812;2022-11-20T14:14:53;3.30;99.90
52849;DHT22;38714;53.180;5.812;2022-11-20T14:17:23;3.40;99.90
52849;DHT22;38714;53.180;5.812;2022-11-20T14:19:51;3.40;99.90
52849;DHT22;38714;53.180;5.812;2022-11-20T14:22:26;3.40;99.90
52849;DHT22;38714;53.180;5.812;2022-11-20T14:25:04;3.40;99.90
52849;DHT22;38714;53.180;5.812;2022-11-20T14:27:34;3.40;99.90
52849;DHT22;38714;53.180;5.812;2022-11-20T14:30:02;3.30;99.90
52849;DHT22;38714;53.180;5.812;2022-11-20T14:32:29;3.30;99.90
52849;DHT22;38714;53.180;5.812;2022-11-20T14:35:01;3.30;99.90
52849;DHT22;38714;53.180;5.812;2022-11-20T14:37:32;3.30;99.90
52849;DHT22;38714;53.180;5.812;2022-11-20T14:39:58;3.30;99.90
52849;DHT22;38714;53.180;5.812;2022-11-20T14:42:27;3.30;99.90
52849;DHT22;38714;53.180;5.812;2022-11-20T14:44:55;3.40;99.90
52849;DHT22;38714;53.180;5.812;2022-11-20T14:47:25;3.30;99.90
52849;DHT22;38714;53.180;5.812;2022-11-20T14:49:52;3.30;99.90
52849;DHT22;38714;53.180;5.812;2022-11-20T14:52:23;3.30;99.90
52849;DHT22;38714;53.180;5.812;2022-11-20T14:54:51;3.30;99.90
52849;DHT22;38714;53.180;5.812;2022-11-20T15:02:44;3.30;99.90
52849;DHT22;38714;53.180;5.812;2022-11-20T15:05:10;3.30;99.90
52849;DHT22;38714;53.180;5.812;2022-11-20T15:07:39;3.30;99.90
52849;DHT22;38714;53.180;5.812;2022-11-20T15:10:09;3.30;99.90
52849;DHT22;38714;53.180;5.812;2022-11-20T15:12:38;3.30;99.90
52849;DHT22;38714;53.180;5.812;2022-11-20T15:15:06;3.30;99.90
52849;DHT22;38714;53.180;5.812;2022-11-20T15:17:40;3.30;99.90
52849;DHT22;38714;53.180;5.812;2022-11-20T15:20:15;3.30;99.90
52849;DHT22;38714;53.180;5.812;2022-11-20T15:22:42;3.30;99.90
52849;DHT22;38714;53.180;5.812;2022-11-20T15:25:15;3.30;99.90
52849;DHT22;38714;53.180;5.812;2022-11-20T15:27:42;3.30;99.90
52849;DHT22;38714;53.180;5.812;2022-11-20T15:30:16;3.30;99.90
52849;DHT22;38714;53.180;5.812;2022-11-20T15:32:43;3.30;99.90
52849;DHT22;38714;53.180;5.812;2022-11-20T15:35:09;3.30;99.90
52849;DHT22;38714;53.180;5.812;2022-11-20T15:37:36;3.30;99.90
52849;DHT22;38714;53.180;5.812;2022-11-20T15:40:02;3.40;99.90
52849;DHT22;38714;53.180;5.812;2022-11-20T15:42:27;3.30;99.90
52849;DHT22;38714;53.180;5.812;2022-11-20T15:44:53;3.30;99.90
52849;DHT22;38714;53.180;5.812;2022-11-20T15:47:23;3.30;99.90
52849;DHT22;38714;53.180;5.812;2022-11-20T15:49:50;3.30;99.90
52849;DHT22;38714;53.180;5.812;2022-11-20T15:52:16;3.30;99.90
52849;DHT22;38714;53.180;5.812;2022-11-20T15:54:41;3.30;99.90
52849;DHT22;38714;53.180;5.812;2022-11-20T15:57:07;3.30;99.90
52849;DHT22;38714;53.180;5.812;2022-11-20T15:59:32;3.30;99.90
52849;DHT22;38714;53.180;5.812;2022-11-20T16:01:58;3.40;99.90
52849;DHT22;38714;53.180;5.812;2022-11-20T16:04:23;3.30;99.90
52849;DHT22;38714;53.180;5.812;2022-11-20T16:06:50;3.30;99.90
52849;DHT22;38714;53.180;5.812;2022-11-20T16:09:15;3.30;99.90
52849;DHT22;38714;53.180;5.812;2022-11-20T16:11:41;3.30;99.90
52849;DHT22;38714;53.180;5.812;2022-11-20T16:14:10;3.30;99.90
52849;DHT22;38714;53.180;5.812;2022-11-20T16:16:54;3.30;99.90
52849;DHT22;38714;53.180;5.812;2022-11-20T16:19:19;3.30;99.90
52849;DHT22;38714;53.180;5.812;2022-11-20T16:21:45;3.30;99.90
52849;DHT22;38714;53.180;5.812;2022-11-20T16:24:12;3.30;99.90
52849;DHT22;38714;53.180;5.812;2022-11-20T16:26:38;3.30;99.90
52849;DHT22;38714;53.180;5.812;2022-11-20T16:29:05;3.30;99.90
52849;DHT22;38714;53.180;5.812;2022-11-20T16:31:32;3.30;99.90
52849;DHT22;38714;53.180;5.812;2022-11-20T16:34:00;3.30;99.90
52849;DHT22;38714;53.180;5.812;2022-11-20T16:36:27;3.30;99.90
52849;DHT22;38714;53.180;5.812;2022-11-20T16:38:58;3.30;99.90
52849;DHT22;38714;53.180;5.812;2022-11-20T16:41:26;3.30;99.90
52849;DHT22;38714;53.180;5.812;2022-11-20T16:43:54;3.30;99.90
52849;DHT22;38714;53.180;5.812;2022-11-20T16:46:24;3.30;99.90
52849;DHT22;38714;53.180;5.812;2022-11-20T16:48:55;3.30;99.90
52849;DHT22;38714;53.180;5.812;2022-11-20T16:51:21;3.20;99.90
52849;DHT22;38714;53.180;5.812;2022-11-20T16:53:47;3.20;99.90
52849;DHT22;38714;53.180;5.812;2022-11-20T16:56:17;3.20;99.90
52849;DHT22;38714;53.180;5.812;2022-11-20T16:58:44;3.20;99.90
52849;DHT22;38714;53.180;5.812;2022-11-20T17:01:12;3.20;99.90
52849;DHT22;38714;53.180;5.812;2022-11-20T17:03:40;3.20;99.90
52849;DHT22;38714;53.180;5.812;2022-11-20T17:06:13;3.20;99.90
52849;DHT22;38714;53.180;5.812;2022-11-20T17:08:39;3.10;99.90
52849;DHT22;38714;53.180;5.812;2022-11-20T17:11:10;3.20;99.90
52849;DHT22;38714;53.180;5.812;2022-11-20T17:13:36;3.10;99.90
52849;DHT22;38714;53.180;5.812;2022-11-20T17:16:07;3.20;99.90
52849;DHT22;38714;53.180;5.812;2022-11-20T17:18:33;3.20;99.90
52849;DHT22;38714;53.180;5.812;2022-11-20T17:20:59;3.10;99.90
52849;DHT22;38714;53.180;5.812;2022-11-20T17:23:36;3.10;99.90
52849;DHT22;38714;53.180;5.812;2022-11-20T17:26:09;3.20;99.90
52849;DHT22;38714;53.180;5.812;2022-11-20T17:28:36;3.20;99.90
52849;DHT22;38714;53.180;5.812;2022-11-20T17:31:05;3.10;99.90
52849;DHT22;38714;53.180;5.812;2022-11-20T17:33:32;3.10;99.90
52849;DHT22;38714;53.180;5.812;2022-11-20T17:35:58;3.20;99.90
52849;DHT22;38714;53.180;5.812;2022-11-20T17:38:24;3.20;99.90
52849;DHT22;38714;53.180;5.812;2022-11-20T17:40:49;3.10;99.90
52849;DHT22;38714;53.180;5.812;2022-11-20T17:43:15;3.10;99.90